Time;durP1;ratioP1;P1;durP2;ratioP2;P2;SDS_P1;SDS_P2;PMS_P1;PMS_P2;Temp;Humidity;BMP_temperature;BMP_pressure;BME280_temperature;BME280_humidity;BME280_pressure;Samples;Min_cycle;Max_cycle;Signal;HPM_P1;HPM_P2
2022/04/27 00:03:55;;;;;;;;;;;;;;;20.82;35.26;95799.84;10383023;28;1930;-45
2022/04/27 00:08:55;;;;;;;;;;;;;;;20.81;35.36;95802.78;10375128;28;1967;-43
2022/04/27 00:13:58;;;;;;;;;;;;;;;20.82;35.16;95805.13;10379626;28;1830;-42
2022/04/27 00:18:58;;;;;;;;;;;;;;;20.81;35.24;95798.28;10398150;28;2081;-42
2022/04/27 00:23:59;;;;;;;;;;;;;;;20.78;35.00;95792.78;10372116;28;2085;-43
2022/04/27 00:28:59;;;;;;;;;;;;;;;20.75;35.15;95788.06;10375047;28;1842;-43
2022/04/27 00:34:00;;;;;;;;;;;;;;;20.77;35.13;95781.44;10371342;28;2107;-43
2022/04/27 00:39:01;;;;;;;;;;;;;;;20.78;34.90;95782.22;10377486;28;2339;-42
2022/04/27 00:44:01;;;;;;;;;;;;;;;20.76;34.84;95777.25;10386193;28;2103;-42
2022/04/27 00:49:03;;;;;;;;;;;;;;;20.77;34.83;95785.94;10389207;28;2030;-45
2022/04/27 00:54:03;;;;;;;;;;;;;;;20.77;34.57;95794.59;10391389;28;1855;-41
2022/04/27 00:59:04;;;;;;;;;;;;;;;20.79;34.82;95794.34;10361488;28;1933;-44
2022/04/27 01:04:05;;;;;;;;;;;;;;;20.80;34.76;95806.44;10379072;28;1938;-42
2022/04/27 01:09:06;;;;;;;;;;;;;;;20.81;34.92;95803.53;10358461;28;1872;-43
2022/04/27 01:14:06;;;;;;;;;;;;;;;20.81;34.81;95803.53;10378698;28;1959;-43
2022/04/27 01:19:06;;;;;;;;;;;;;;;20.85;34.85;95804.59;10392418;28;1913;-42
2022/04/27 01:24:07;;;;;;;;;;;;;;;20.88;34.93;95808.50;10382824;28;2039;-42
2022/04/27 01:29:07;;;;;;;;;;;;;;;20.88;35.12;95809.31;10377465;28;2011;-45
2022/04/27 01:34:08;;;;;;;;;;;;;;;20.90;35.26;95809.81;10376412;28;1876;-45
2022/04/27 01:39:09;;;;;;;;;;;;;;;20.86;35.02;95811.44;10373069;28;1914;-45
2022/04/27 01:44:09;;;;;;;;;;;;;;;20.85;34.94;95815.13;10367152;28;1967;-44
2022/04/27 01:49:09;;;;;;;;;;;;;;;20.88;34.73;95824.31;10385563;28;1971;-42
2022/04/27 01:54:16;;;;;;;;;;;;;;;20.84;34.40;95826.72;10380841;28;1952;-41
2022/04/27 01:59:16;;;;;;;;;;;;;;;20.81;34.64;95829.88;10377675;28;2052;-43
2022/04/27 02:04:16;;;;;;;;;;;;;;;20.80;34.53;95823.06;10383990;28;1881;-44
2022/04/27 02:09:17;;;;;;;;;;;;;;;20.80;34.58;95820.41;10375330;28;2027;-43
2022/04/27 02:14:17;;;;;;;;;;;;;;;20.81;34.41;95826.50;10399450;28;1909;-46
2022/04/27 02:19:18;;;;;;;;;;;;;;;20.81;34.49;95829.13;10379921;28;1910;-42
2022/04/27 02:24:19;;;;;;;;;;;;;;;20.81;34.74;95827.25;10378301;28;1830;-43
2022/04/27 02:29:20;;;;;;;;;;;;;;;20.81;34.61;95829.88;10372106;28;1813;-43
2022/04/27 02:34:21;;;;;;;;;;;;;;;20.81;34.32;95835.16;10388899;28;1864;-43
2022/04/27 02:39:22;;;;;;;;;;;;;;;20.81;34.43;95829.88;10391368;28;1914;-45
2022/04/27 02:44:22;;;;;;;;;;;;;;;20.81;34.45;95840.41;10390139;28;1846;-43
2022/04/27 02:54:42;;;;;;;;;;;;;;;20.85;34.36;95844.13;10387446;28;1790;-45
2022/04/27 02:59:43;;;;;;;;;;;;;;;20.83;34.51;95851.50;10394826;28;2011;-45
2022/04/27 03:04:44;;;;;;;;;;;;;;;20.85;34.54;95852.03;10392274;28;1976;-44
2022/04/27 03:09:44;;;;;;;;;;;;;;;20.89;34.43;95860.16;10389737;28;1869;-42
2022/04/27 03:14:44;;;;;;;;;;;;;;;20.85;34.66;95861.75;10406150;28;1829;-42
2022/04/27 03:19:46;;;;;;;;;;;;;;;20.83;34.76;95859.41;10379570;28;1906;-42
2022/04/27 03:24:47;;;;;;;;;;;;;;;20.82;34.68;95867.56;10381128;28;1964;-44
2022/04/27 03:29:47;;;;;;;;;;;;;;;20.81;34.74;95869.41;10384601;28;1795;-44
2022/04/27 03:34:47;;;;;;;;;;;;;;;20.80;34.27;95867.06;10378821;28;1823;-43
2022/04/27 03:39:48;;;;;;;;;;;;;;;20.79;34.70;95874.16;10384851;28;1902;-47
2022/04/27 03:44:48;;;;;;;;;;;;;;;20.79;34.50;95876.03;10384086;28;1843;-42
2022/04/27 03:49:48;;;;;;;;;;;;;;;20.78;34.28;95875.22;10402977;28;2037;-45
2022/04/27 03:54:48;;;;;;;;;;;;;;;20.78;34.13;95885.78;10393892;28;1971;-42
2022/04/27 03:59:49;;;;;;;;;;;;;;;20.78;34.26;95891.03;10379038;28;2042;-44
2022/04/27 04:04:49;;;;;;;;;;;;;;;20.79;34.58;95905.78;10383454;28;1870;-43
2022/04/27 04:09:49;;;;;;;;;;;;;;;20.78;34.21;95904.22;10383807;28;1789;-43
2022/04/27 04:14:50;;;;;;;;;;;;;;;20.79;34.25;95910.28;10404738;28;1862;-42
2022/04/27 04:19:51;;;;;;;;;;;;;;;20.78;34.37;95920.03;10394356;28;1914;-41
2022/04/27 04:30:10;;;;;;;;;;;;;;;20.80;34.25;95930.28;10403962;28;1889;-41
2022/04/27 04:35:11;;;;;;;;;;;;;;;20.79;34.39;95932.13;10379251;28;1913;-44
2022/04/27 04:40:11;;;;;;;;;;;;;;;20.80;34.34;95948.72;10387860;28;1981;-43
2022/04/27 04:45:11;;;;;;;;;;;;;;;20.80;34.13;95948.72;10400438;28;1971;-45
2022/04/27 04:50:12;;;;;;;;;;;;;;;20.80;34.02;95949.50;10402033;28;1790;-42
2022/04/27 04:55:12;;;;;;;;;;;;;;;20.80;34.18;95954.78;10397504;28;1971;-44
2022/04/27 05:00:13;;;;;;;;;;;;;;;20.80;34.53;95956.63;10393916;28;1906;-46
2022/04/27 05:05:13;;;;;;;;;;;;;;;20.82;34.20;95957.94;10389798;28;1889;-42
2022/04/27 05:10:14;;;;;;;;;;;;;;;20.82;34.35;95965.84;10378455;28;1963;-44
2022/04/27 05:15:14;;;;;;;;;;;;;;;20.79;34.42;95979.53;10379847;28;1889;-45
2022/04/27 05:20:15;;;;;;;;;;;;;;;20.77;34.55;95979.03;10373639;28;2121;-46
2022/04/27 05:25:15;;;;;;;;;;;;;;;20.79;34.41;95989.31;10377411;28;1971;-42
2022/04/27 05:35:41;;;;;;;;;;;;;;;20.76;33.87;96000.38;10402963;28;2018;-44
2022/04/27 05:40:43;;;;;;;;;;;;;;;20.84;34.08;95997.97;10385442;28;1914;-42
2022/04/27 05:45:45;;;;;;;;;;;;;;;20.80;34.02;96007.47;10403094;28;1834;-47
2022/04/27 05:50:45;;;;;;;;;;;;;;;20.84;34.55;96013.78;10394637;28;2145;-47
2022/04/27 05:55:46;;;;;;;;;;;;;;;20.96;34.92;96019.53;10385098;28;1836;-47
2022/04/27 06:00:49;;;;;;;;;;;;;;;20.91;34.09;96024.84;10411277;28;1914;-47
2022/04/27 06:05:49;;;;;;;;;;;;;;;20.94;34.07;96028.75;10395767;28;1846;-42
2022/04/27 06:10:50;;;;;;;;;;;;;;;20.91;34.20;96029.31;10415442;28;1782;-42
2022/04/27 06:15:51;;;;;;;;;;;;;;;20.93;34.26;96032.47;10402246;28;1814;-43
2022/04/27 06:20:54;;;;;;;;;;;;;;;20.95;34.61;96041.69;10398765;28;1943;-45
2022/04/27 06:25:55;;;;;;;;;;;;;;;20.98;34.38;96049.03;10412808;28;1979;-42
2022/04/27 06:30:56;;;;;;;;;;;;;;;21.00;34.96;96054.03;10382149;28;1987;-43
2022/04/27 06:35:56;;;;;;;;;;;;;;;20.98;34.55;96051.69;10376587;28;2189;-42
2022/04/27 06:40:56;;;;;;;;;;;;;;;20.98;33.94;96051.69;10390832;28;1969;-41
2022/04/27 06:45:59;;;;;;;;;;;;;;;20.97;34.25;96057.22;10383911;28;1862;-43
2022/04/27 06:51:00;;;;;;;;;;;;;;;20.97;34.28;96063.28;10391739;28;1798;-42
2022/04/27 06:56:01;;;;;;;;;;;;;;;20.98;33.78;96056.94;10399667;28;1981;-42
2022/04/27 07:01:04;;;;;;;;;;;;;;;20.96;33.42;96063.53;10399280;28;1906;-42
2022/04/27 07:06:05;;;;;;;;;;;;;;;21.00;34.05;96065.38;10378392;28;1826;-41
2022/04/27 07:11:06;;;;;;;;;;;;;;;21.00;33.46;96065.38;10384472;28;2038;-43
2022/04/27 07:16:06;;;;;;;;;;;;;;;20.97;33.05;96058.03;10385669;28;1985;-43
2022/04/27 07:21:08;;;;;;;;;;;;;;;20.99;33.05;96063.81;10390497;28;1906;-44
2022/04/27 07:26:08;;;;;;;;;;;;;;;20.99;33.27;96068.28;10388749;28;1841;-42
2022/04/27 07:31:09;;;;;;;;;;;;;;;21.00;33.02;96072.50;10400669;28;1918;-42
2022/04/27 07:36:10;;;;;;;;;;;;;;;21.01;32.92;96076.72;10390504;28;1872;-45
2022/04/27 07:41:10;;;;;;;;;;;;;;;21.02;33.29;96081.75;10412658;28;1887;-44
2022/04/27 07:46:11;;;;;;;;;;;;;;;21.03;33.04;96085.97;10410413;28;1915;-43
2022/04/27 07:51:14;;;;;;;;;;;;;;;21.03;32.94;96083.34;10412597;28;1814;-45
2022/04/27 07:56:14;;;;;;;;;;;;;;;21.05;33.03;96093.59;10402699;28;1841;-43
2022/04/27 08:01:15;;;;;;;;;;;;;;;21.05;32.87;96099.66;10396122;28;1910;-45
2022/04/27 08:06:15;;;;;;;;;;;;;;;21.10;33.16;96098.06;10395889;28;1858;-44
2022/04/27 08:11:15;;;;;;;;;;;;;;;21.12;32.88;96103.88;10398507;28;2038;-45
2022/04/27 08:16:16;;;;;;;;;;;;;;;21.13;32.79;96103.59;10393446;28;1954;-43
2022/04/27 08:21:16;;;;;;;;;;;;;;;21.15;32.67;96103.31;10391969;28;2001;-43
2022/04/27 08:26:17;;;;;;;;;;;;;;;21.16;32.83;96103.06;10395042;28;1850;-43
2022/04/27 08:31:18;;;;;;;;;;;;;;;21.19;32.90;96107.00;10393956;28;1753;-46
2022/04/27 08:36:18;;;;;;;;;;;;;;;21.20;32.62;96106.75;10395402;28;2075;-48
2022/04/27 08:41:19;;;;;;;;;;;;;;;21.24;32.91;96114.91;10396008;28;2007;-45
2022/04/27 08:46:19;;;;;;;;;;;;;;;21.30;33.37;96119.91;10396994;28;1951;-45
2022/04/27 08:51:20;;;;;;;;;;;;;;;21.33;33.72;96127.25;10409927;28;1891;-46
2022/04/27 08:56:20;;;;;;;;;;;;;;;21.34;33.39;96128.03;10403710;28;1853;-44
2022/04/27 09:01:20;;;;;;;;;;;;;;;21.31;33.16;96134.66;10412590;28;1961;-44
2022/04/27 09:06:22;;;;;;;;;;;;;;;21.35;33.96;96134.91;10406946;28;1886;-43
2022/04/27 09:11:26;;;;;;;;;;;;;;;21.35;33.88;96140.97;10390022;28;1946;-46
2022/04/27 09:20:46;;;;;;;;;;;;;;;21.35;33.80;96148.09;10395179;28;1713;-44
2022/04/27 09:21:53;;;;;;;;;;;;;;;21.34;33.81;96147.31;10410168;28;1910;-46
2022/04/27 09:27:00;;;;;;;;;;;;;;;21.34;34.14;96155.22;10410387;28;1882;-46
2022/04/27 09:32:03;;;;;;;;;;;;;;;21.30;33.69;96153.38;10412813;28;1818;-43
2022/04/27 09:37:18;;;;;;;;;;;;;;;21.30;34.11;96158.66;10396289;28;1823;-42
2022/04/27 09:42:18;;;;;;;;;;;;;;;21.32;34.43;96149.41;10398807;28;1906;-43
2022/04/27 09:47:20;;;;;;;;;;;;;;;21.31;34.24;96157.59;10384281;28;1928;-44
2022/04/27 09:52:20;;;;;;;;;;;;;;;21.31;34.60;96155.75;10383329;28;1741;-46
2022/04/27 09:57:22;;;;;;;;;;;;;;;21.28;34.49;96156.28;10411249;28;1857;-44
2022/04/27 10:02:24;;;;;;;;;;;;;;;21.30;34.52;96156.00;10388682;28;1906;-47
2022/04/27 10:07:24;;;;;;;;;;;;;;;21.30;34.93;96158.66;10369880;28;1818;-43
2022/04/27 10:12:25;;;;;;;;;;;;;;;21.32;34.85;96169.72;10410733;28;1961;-42
2022/04/27 10:17:26;;;;;;;;;;;;;;;21.31;35.01;96170.78;10411686;28;1794;-43
2022/04/27 10:22:31;;;;;;;;;;;;;;;21.30;35.24;96169.19;10396373;28;1914;-42
2022/04/27 10:27:33;;;;;;;;;;;;;;;21.30;35.73;96171.84;10419955;28;1834;-43
2022/04/27 10:32:33;;;;;;;;;;;;;;;21.30;35.61;96179.75;10394176;28;1703;-44
2022/04/27 10:37:47;;;;;;;;;;;;;;;21.32;35.28;96183.69;10398226;28;1810;-47
2022/04/27 10:42:47;;;;;;;;;;;;;;;21.31;35.61;96173.44;10401304;28;1910;-43
2022/04/27 10:47:47;;;;;;;;;;;;;;;21.33;35.58;96177.34;10382666;28;1715;-46
2022/04/27 10:52:51;;;;;;;;;;;;;;;21.33;35.57;96180.00;10398935;28;1802;-44
2022/04/27 10:58:09;;;;;;;;;;;;;;;21.33;35.72;96173.94;10398917;28;1786;-43
2022/04/27 11:03:16;;;;;;;;;;;;;;;21.31;35.67;96181.34;10389387;28;1964;-44
2022/04/27 11:08:18;;;;;;;;;;;;;;;21.31;35.66;96186.63;10384078;28;2048;-42
2022/04/27 11:13:19;;;;;;;;;;;;;;;21.30;35.51;96185.81;10400288;28;1798;-44
2022/04/27 11:18:20;;;;;;;;;;;;;;;21.29;35.78;96197.41;10401553;28;1775;-42
2022/04/27 11:23:21;;;;;;;;;;;;;;;21.27;35.68;96204.03;10394458;28;1910;-42
2022/04/27 11:28:21;;;;;;;;;;;;;;;21.26;35.94;96202.44;10389046;28;1713;-42
2022/04/27 11:33:22;;;;;;;;;;;;;;;21.28;35.74;96210.88;10397863;28;1735;-46
2022/04/27 11:38:32;;;;;;;;;;;;;;;21.25;35.95;96209.53;10403842;28;1752;-42
2022/04/27 11:43:33;;;;;;;;;;;;;;;21.28;35.68;96210.88;10403412;28;1926;-46
2022/04/27 11:48:33;;;;;;;;;;;;;;;21.29;35.61;96212.47;10394394;28;1899;-43
2022/04/27 11:53:43;;;;;;;;;;;;;;;21.30;35.65;96216.66;10374158;28;1857;-46
2022/04/27 11:58:48;;;;;;;;;;;;;;;21.31;35.75;96215.63;10398332;28;1770;-47
2022/04/27 12:03:52;;;;;;;;;;;;;;;21.33;35.70;96210.88;10373356;28;1910;-43
2022/04/27 12:08:52;;;;;;;;;;;;;;;21.33;35.66;96216.13;10384203;28;1831;-47
2022/04/27 12:13:55;;;;;;;;;;;;;;;21.34;35.72;96213.22;10382185;28;1851;-44
2022/04/27 12:18:55;;;;;;;;;;;;;;;21.35;35.38;96221.94;10375749;28;1830;-47
2022/04/27 12:24:00;;;;;;;;;;;;;;;21.36;35.69;96211.13;10385565;28;1903;-45
2022/04/27 12:29:06;;;;;;;;;;;;;;;21.37;35.46;96209.28;10400859;28;1913;-45
2022/04/27 12:37:29;;;;;;;;;;;;;;;21.36;35.68;96205.03;10392655;28;1841;-43
2022/04/27 12:39:36;;;;;;;;;;;;;;;21.37;35.64;96204.00;10374635;28;1906;-47
2022/04/27 12:44:37;;;;;;;;;;;;;;;21.39;35.57;96204.53;10385999;28;1879;-44
2022/04/27 12:49:45;;;;;;;;;;;;;;;21.37;35.50;96198.72;10382795;28;1791;-45
2022/04/27 12:54:46;;;;;;;;;;;;;;;21.38;35.50;96190.53;10376175;28;1876;-44
2022/04/27 12:59:53;;;;;;;;;;;;;;;21.37;35.47;96188.94;10378645;28;1926;-46
2022/04/27 13:04:54;;;;;;;;;;;;;;;21.38;35.38;96195.03;10377158;28;1776;-49
2022/04/27 13:15:13;;;;;;;;;;;;;;;21.37;35.62;96188.19;10400983;28;1960;-44
2022/04/27 13:20:13;;;;;;;;;;;;;;;21.37;35.55;96188.19;10376087;28;1918;-46
2022/04/27 13:25:14;;;;;;;;;;;;;;;21.41;35.41;96183.94;10391942;28;1830;-46
2022/04/27 13:30:14;;;;;;;;;;;;;;;21.41;35.27;96186.59;10385956;28;1760;-45
2022/04/27 13:35:14;;;;;;;;;;;;;;;21.45;35.15;96183.13;10384541;28;1834;-43
2022/04/27 13:40:15;;;;;;;;;;;;;;;21.46;36.18;96186.56;10394326;28;1903;-46
2022/04/27 13:45:16;;;;;;;;;;;;;;;21.50;36.88;96179.69;10394558;28;1849;-47
2022/04/27 13:50:16;;;;;;;;;;;;;;;21.51;37.19;96179.44;10394632;28;1798;-45
2022/04/27 13:55:16;;;;;;;;;;;;;;;21.51;37.44;96181.28;10401378;28;2113;-48
2022/04/27 14:00:17;;;;;;;;;;;;;;;21.50;37.77;96180.47;10399222;28;1922;-44
2022/04/27 14:05:17;;;;;;;;;;;;;;;21.49;37.81;96172.84;10383633;28;1752;-43
2022/04/27 14:10:21;;;;;;;;;;;;;;;21.48;37.63;96179.16;10396625;28;1808;-43
2022/04/27 14:15:21;;;;;;;;;;;;;;;21.45;37.77;96179.72;10384069;28;1831;-46
2022/04/27 14:20:22;;;;;;;;;;;;;;;21.44;37.81;96176.28;10386247;28;1973;-46
2022/04/27 14:25:23;;;;;;;;;;;;;;;21.45;37.63;96179.72;10397006;28;1815;-44
2022/04/27 14:30:26;;;;;;;;;;;;;;;21.42;37.75;96180.22;10414765;28;1811;-50
2022/04/27 14:35:26;;;;;;;;;;;;;;;21.39;37.59;96184.19;10417936;28;1858;-46
2022/04/27 14:40:26;;;;;;;;;;;;;;;21.38;37.69;96182.63;10369858;28;1914;-46
2022/04/27 14:45:27;;;;;;;;;;;;;;;21.33;37.65;96187.13;10384611;28;1724;-48
2022/04/27 14:50:27;;;;;;;;;;;;;;;21.35;37.78;96182.38;10378057;28;1969;-45
2022/04/27 14:55:28;;;;;;;;;;;;;;;21.34;37.76;96181.59;10378393;28;1815;-48
2022/04/27 15:00:28;;;;;;;;;;;;;;;21.31;37.69;96181.34;10386100;28;1906;-45
2022/04/27 15:05:28;;;;;;;;;;;;;;;21.29;37.63;96189.50;10377487;28;1800;-47
2022/04/27 15:10:29;;;;;;;;;;;;;;;21.31;37.71;96189.25;10386749;28;1860;-47
2022/04/27 15:15:29;;;;;;;;;;;;;;;21.24;37.88;96188.72;10378579;28;1843;-48
2022/04/27 15:25:49;;;;;;;;;;;;;;;21.35;37.75;96187.66;10380704;28;1698;-46
2022/04/27 15:30:49;;;;;;;;;;;;;;;21.33;37.70;96181.84;10394307;28;1752;-43
2022/04/27 15:35:50;;;;;;;;;;;;;;;21.22;37.97;96182.94;10396454;28;1849;-44
2022/04/27 15:40:50;;;;;;;;;;;;;;;21.28;37.54;96181.84;10409890;28;1902;-46
2022/04/27 15:45:50;;;;;;;;;;;;;;;21.25;36.96;96188.44;10412492;28;1746;-43
2022/04/27 15:50:51;;;;;;;;;;;;;;;21.24;36.96;96192.16;10408087;28;1794;-42
2022/04/27 15:55:51;;;;;;;;;;;;;;;21.32;37.08;96188.19;10400716;28;1830;-43
2022/04/27 16:00:51;;;;;;;;;;;;;;;21.25;37.69;96200.84;10399563;28;2025;-42
2022/04/27 16:05:52;;;;;;;;;;;;;;;21.25;37.39;96204.28;10408739;28;1846;-42
2022/04/27 16:10:52;;;;;;;;;;;;;;;21.24;37.42;96202.72;10409766;28;1884;-45
2022/04/27 16:15:52;;;;;;;;;;;;;;;21.22;37.28;96202.19;10411656;28;1846;-46
2022/04/27 16:26:12;;;;;;;;;;;;;;;21.19;37.11;96215.09;10398950;28;1909;-43
2022/04/27 16:31:12;;;;;;;;;;;;;;;21.18;37.20;96213.53;10402661;28;1815;-48
2022/04/27 16:36:13;;;;;;;;;;;;;;;21.19;37.08;96223.00;10405283;28;1834;-46
2022/04/27 16:41:13;;;;;;;;;;;;;;;21.16;37.17;96231.44;10398674;28;1906;-48
2022/04/27 16:46:14;;;;;;;;;;;;;;;21.19;36.85;96223.00;10393938;28;1725;-48
2022/04/27 16:51:14;;;;;;;;;;;;;;;21.18;36.90;96229.34;10374138;28;1806;-48
2022/04/27 16:56:15;;;;;;;;;;;;;;;21.18;36.78;96230.13;10396007;28;1891;-46
2022/04/27 17:01:16;;;;;;;;;;;;;;;21.22;36.92;96235.66;10398053;28;2333;-46
2022/04/27 17:06:17;;;;;;;;;;;;;;;21.25;37.02;96243.03;10393515;28;1860;-46
2022/04/27 17:11:17;;;;;;;;;;;;;;;21.27;37.53;96249.63;10387463;28;1896;-46
2022/04/27 17:16:17;;;;;;;;;;;;;;;21.28;37.42;96242.50;10390502;28;1728;-46
2022/04/27 17:21:18;;;;;;;;;;;;;;;21.39;37.44;96257.28;10408018;28;1910;-44
2022/04/27 17:31:37;;;;;;;;;;;;;;;21.41;37.64;96252.53;10394972;28;1818;-46
2022/04/27 17:36:38;;;;;;;;;;;;;;;21.41;37.50;96255.16;10400310;28;1922;-43
2022/04/27 17:41:38;;;;;;;;;;;;;;;21.34;37.46;96260.69;10410825;28;1957;-44
2022/04/27 17:46:39;;;;;;;;;;;;;;;21.36;37.22;96270.97;10371215;28;1896;-43
2022/04/27 17:51:41;;;;;;;;;;;;;;;21.31;37.21;96279.66;10403665;28;1423;-43
2022/04/27 17:56:41;;;;;;;;;;;;;;;21.30;37.43;96279.94;10381582;28;1649;-44
2022/04/27 18:01:42;;;;;;;;;;;;;;;21.21;34.65;96281.53;10387058;28;1898;-43
2022/04/27 18:06:42;;;;;;;;;;;;;;;21.22;36.76;96285.75;10407097;28;1754;-43
2022/04/27 18:11:43;;;;;;;;;;;;;;;21.20;36.93;96291.31;10403941;28;1611;-49
2022/04/27 18:16:45;;;;;;;;;;;;;;;21.24;37.03;96294.19;10380910;28;1437;-44
2022/04/27 18:21:45;;;;;;;;;;;;;;;21.21;37.00;96292.06;10395122;28;2007;-45
2022/04/27 18:26:46;;;;;;;;;;;;;;;21.23;36.89;96303.94;10399163;28;1482;-43
2022/04/27 18:31:46;;;;;;;;;;;;;;;21.22;36.84;96305.00;10391164;28;1451;-46
2022/04/27 18:36:47;;;;;;;;;;;;;;;21.25;36.94;96311.56;10374503;28;1566;-44
2022/04/27 18:41:47;;;;;;;;;;;;;;;21.28;37.06;96319.78;10393715;28;1981;-46
2022/04/27 18:52:10;;;;;;;;;;;;;;;21.31;36.94;96326.38;10387706;28;1523;-43
2022/04/27 18:57:11;;;;;;;;;;;;;;;21.37;37.09;96330.59;10398233;28;1524;-44
2022/04/27 19:02:12;;;;;;;;;;;;;;;21.42;36.80;96335.84;10403083;28;1967;-43
2022/04/27 19:07:12;;;;;;;;;;;;;;;21.43;36.85;96346.13;10389427;28;1553;-43
2022/04/27 19:12:15;;;;;;;;;;;;;;;21.44;36.27;96345.06;10392281;28;1595;-47
2022/04/27 19:17:17;;;;;;;;;;;;;;;21.45;36.27;96348.50;10386334;28;1540;-45
2022/04/27 19:22:18;;;;;;;;;;;;;;;21.49;36.44;96347.72;10377889;28;1914;-44
2022/04/27 19:27:19;;;;;;;;;;;;;;;21.52;36.34;96354.28;10399683;28;1506;-44
2022/04/27 19:32:21;;;;;;;;;;;;;;;21.53;36.39;96353.25;10397546;28;1380;-46
2022/04/27 19:37:21;;;;;;;;;;;;;;;21.54;36.12;96357.47;10396832;28;1490;-44
2022/04/27 19:42:23;;;;;;;;;;;;;;;21.54;35.96;96362.75;10371638;28;2097;-47
2022/04/27 19:47:27;;;;;;;;;;;;;;;21.59;36.49;96362.75;10387726;28;1470;-43
2022/04/27 19:57:47;;;;;;;;;;;;;;;21.59;36.42;96363.53;10395848;28;1712;-42
2022/04/27 20:02:48;;;;;;;;;;;;;;;21.61;36.07;96361.44;10400847;28;1918;-43
2022/04/27 20:07:48;;;;;;;;;;;;;;;21.61;36.23;96360.63;10409923;28;1508;-42
2022/04/27 20:12:48;;;;;;;;;;;;;;;21.60;36.27;96357.19;10391485;28;1671;-46
2022/04/27 20:17:49;;;;;;;;;;;;;;;21.59;36.41;96360.91;10382104;28;1569;-45
2022/04/27 20:22:52;;;;;;;;;;;;;;;21.58;36.04;96361.94;10393527;28;1910;-54
2022/04/27 20:27:54;;;;;;;;;;;;;;;21.56;36.67;96360.63;10386364;28;1540;-43
2022/04/27 20:32:55;;;;;;;;;;;;;;;21.53;36.59;96358.53;10402673;28;1501;-43
2022/04/27 20:37:55;;;;;;;;;;;;;;;21.54;36.38;96362.75;10378277;28;1584;-43
2022/04/27 20:42:56;;;;;;;;;;;;;;;21.52;36.62;96367.47;10375383;28;1914;-43
2022/04/27 20:48:01;;;;;;;;;;;;;;;21.49;36.61;96358.28;10379913;28;1614;-45
2022/04/27 20:53:01;;;;;;;;;;;;;;;21.52;36.39;96367.47;10398885;28;1507;-44
2022/04/27 20:58:03;;;;;;;;;;;;;;;21.46;36.27;96368.53;10397579;28;1460;-44
2022/04/27 21:03:03;;;;;;;;;;;;;;;21.47;36.44;96372.78;10384437;28;1977;-42
2022/04/27 21:08:04;;;;;;;;;;;;;;;21.39;36.48;96376.72;10380305;28;1577;-42
2022/04/27 21:13:05;;;;;;;;;;;;;;;21.38;36.47;96376.97;10377444;28;1903;-46
2022/04/27 21:18:05;;;;;;;;;;;;;;;21.35;36.35;96386.22;10389810;28;1422;-43
2022/04/27 21:23:05;;;;;;;;;;;;;;;21.33;36.37;96375.13;10399011;28;1918;-44
2022/04/27 21:28:06;;;;;;;;;;;;;;;21.36;36.41;96379.09;10387581;28;2279;-43
2022/04/27 21:33:07;;;;;;;;;;;;;;;21.35;36.34;96378.28;10391524;28;2301;-46
2022/04/27 21:38:07;;;;;;;;;;;;;;;21.38;36.61;96382.25;10381760;28;1889;-43
2022/04/27 21:43:08;;;;;;;;;;;;;;;21.31;36.39;96387.78;10380847;28;1969;-41
2022/04/27 21:48:09;;;;;;;;;;;;;;;21.31;36.25;96381.75;10382467;28;2091;-44
2022/04/27 21:53:10;;;;;;;;;;;;;;;21.34;36.51;96394.38;10405471;28;2107;-44
2022/04/27 21:58:10;;;;;;;;;;;;;;;21.31;36.17;96392.28;10399604;28;2331;-43
2022/04/27 22:03:11;;;;;;;;;;;;;;;21.31;36.20;96390.44;10399597;28;2500;-47
2022/04/27 22:08:12;;;;;;;;;;;;;;;21.31;36.27;96389.66;10402557;28;2036;-45
2022/04/27 22:13:12;;;;;;;;;;;;;;;21.30;36.22;96386.22;10382783;28;2036;-44
2022/04/27 22:18:12;;;;;;;;;;;;;;;21.32;36.23;96385.94;10387846;28;2052;-43
2022/04/27 22:23:13;;;;;;;;;;;;;;;21.30;36.45;96385.41;10402781;28;2564;-45
2022/04/27 22:28:13;;;;;;;;;;;;;;;21.28;36.45;96387.53;10391971;28;2241;-43
2022/04/27 22:33:15;;;;;;;;;;;;;;;21.28;36.23;96390.16;10403046;28;1802;-43
2022/04/27 22:38:16;;;;;;;;;;;;;;;21.25;36.18;96391.47;10378602;28;1804;-44
2022/04/27 22:43:17;;;;;;;;;;;;;;;21.22;36.25;96386.75;10390327;28;1993;-43
2022/04/27 22:48:17;;;;;;;;;;;;;;;21.23;36.25;96387.50;10389598;28;2465;-46
2022/04/27 22:53:17;;;;;;;;;;;;;;;21.20;36.62;96395.97;10380764;28;1962;-43
2022/04/27 22:58:18;;;;;;;;;;;;;;;21.19;36.63;96389.09;10394953;28;1837;-45
2022/04/27 23:03:18;;;;;;;;;;;;;;;21.14;36.39;96389.09;10389778;28;2045;-46
2022/04/27 23:13:48;;;;;;;;;;;;;;;21.11;36.38;96386.97;10388841;28;1824;-47
2022/04/27 23:18:48;;;;;;;;;;;;;;;21.14;36.67;96392.53;10387724;28;2022;-44
2022/04/27 23:23:52;;;;;;;;;;;;;;;21.15;36.46;96396.75;10381750;28;2064;-47
2022/04/27 23:28:53;;;;;;;;;;;;;;;21.11;36.59;96397.50;10385470;28;2116;-46
2022/04/27 23:33:53;;;;;;;;;;;;;;;21.15;36.60;96399.38;10378801;28;1968;-43
2022/04/27 23:38:54;;;;;;;;;;;;;;;21.18;36.36;96398.06;10375984;28;1823;-44
2022/04/27 23:43:56;;;;;;;;;;;;;;;21.18;36.56;96390.16;10401414;28;2104;-45
2022/04/27 23:48:56;;;;;;;;;;;;;;;21.16;36.37;96389.63;10389615;28;1941;-50
2022/04/27 23:53:57;;;;;;;;;;;;;;;21.13;36.30;96388.28;10370758;28;2487;-43
2022/04/27 23:58:57;;;;;;;;;;;;;;;21.18;36.01;96379.63;10405150;28;2047;-47
